sensor_id;sensor_type;location;lat;lon;timestamp;pressure;altitude;pressure_sealevel;temperature;humidity
62725;BME280;49026;52.600;4.694;2022-12-16T00:00:23;101129.66;;;-0.52;86.66
62725;BME280;49026;52.600;4.694;2022-12-16T00:02:50;101130.53;;;-0.55;86.97
62725;BME280;49026;52.600;4.694;2022-12-16T00:05:16;101131.34;;;-0.58;86.61
62725;BME280;49026;52.600;4.694;2022-12-16T00:07:44;101144.22;;;-0.59;86.98
62725;BME280;49026;52.600;4.694;2022-12-16T00:10:10;101141.59;;;-0.64;86.85
62725;BME280;49026;52.600;4.694;2022-12-16T00:12:35;101142.41;;;-0.69;86.20
62725;BME280;49026;52.600;4.694;2022-12-16T00:15:01;101141.50;;;-0.75;86.36
62725;BME280;49026;52.600;4.694;2022-12-16T00:17:26;101138.00;;;-0.80;86.40
62725;BME280;49026;52.600;4.694;2022-12-16T00:19:52;101137.91;;;-0.86;86.37
62725;BME280;49026;52.600;4.694;2022-12-16T00:22:18;101126.69;;;-0.91;86.19
62725;BME280;49026;52.600;4.694;2022-12-16T00:24:43;101130.09;;;-0.92;86.23
62725;BME280;49026;52.600;4.694;2022-12-16T00:27:09;101142.16;;;-0.91;86.43
62725;BME280;49026;52.600;4.694;2022-12-16T00:29:34;101142.16;;;-0.91;86.85
62725;BME280;49026;52.600;4.694;2022-12-16T00:32:00;101141.31;;;-0.90;86.84
62725;BME280;49026;52.600;4.694;2022-12-16T00:34:27;101133.63;;;-0.87;86.39
62725;BME280;49026;52.600;4.694;2022-12-16T00:36:52;101141.34;;;-0.87;86.47
62725;BME280;49026;52.600;4.694;2022-12-16T00:39:18;101151.69;;;-0.87;86.71
62725;BME280;49026;52.600;4.694;2022-12-16T00:41:43;101149.06;;;-0.90;86.58
62725;BME280;49026;52.600;4.694;2022-12-16T00:44:09;101151.63;;;-0.91;86.71
62725;BME280;49026;52.600;4.694;2022-12-16T00:46:34;101154.19;;;-0.93;86.37
62725;BME280;49026;52.600;4.694;2022-12-16T00:49:02;101155.84;;;-0.97;86.47
62725;BME280;49026;52.600;4.694;2022-12-16T00:51:28;101164.41;;;-0.99;86.28
62725;BME280;49026;52.600;4.694;2022-12-16T00:53:56;101167.81;;;-1.03;86.37
62725;BME280;49026;52.600;4.694;2022-12-16T00:56:22;101170.34;;;-1.06;86.72
62725;BME280;49026;52.600;4.694;2022-12-16T00:58:47;101169.47;;;-1.08;86.95
62725;BME280;49026;52.600;4.694;2022-12-16T01:01:13;101174.59;;;-1.12;86.41
62725;BME280;49026;52.600;4.694;2022-12-16T01:03:39;101165.97;;;-1.14;86.44
62725;BME280;49026;52.600;4.694;2022-12-16T01:06:10;101174.50;;;-1.16;86.62
62725;BME280;49026;52.600;4.694;2022-12-16T01:08:36;101175.34;;;-1.20;86.24
62725;BME280;49026;52.600;4.694;2022-12-16T01:11:02;101179.56;;;-1.22;86.80
62725;BME280;49026;52.600;4.694;2022-12-16T01:13:28;101172.63;;;-1.28;86.86
62725;BME280;49026;52.600;4.694;2022-12-16T01:15:54;101184.59;;;-1.33;86.91
62725;BME280;49026;52.600;4.694;2022-12-16T01:18:23;101188.81;;;-1.38;87.19
62725;BME280;49026;52.600;4.694;2022-12-16T01:20:48;101188.78;;;-1.41;87.22
62725;BME280;49026;52.600;4.694;2022-12-16T01:23:14;101188.78;;;-1.41;87.62
62725;BME280;49026;52.600;4.694;2022-12-16T01:25:39;101187.00;;;-1.44;87.46
62725;BME280;49026;52.600;4.694;2022-12-16T01:28:07;101193.00;;;-1.46;87.74
62725;BME280;49026;52.600;4.694;2022-12-16T01:30:33;101192.94;;;-1.50;87.99
62725;BME280;49026;52.600;4.694;2022-12-16T01:32:59;101200.66;;;-1.51;88.04
62725;BME280;49026;52.600;4.694;2022-12-16T01:35:24;101194.72;;;-1.45;88.14
62725;BME280;49026;52.600;4.694;2022-12-16T01:37:49;101197.41;;;-1.39;87.67
62725;BME280;49026;52.600;4.694;2022-12-16T01:40:17;101204.28;;;-1.38;87.60
62725;BME280;49026;52.600;4.694;2022-12-16T01:42:44;101209.47;;;-1.37;87.43
62725;BME280;49026;52.600;4.694;2022-12-16T01:45:29;101204.28;;;-1.38;86.94
62725;BME280;49026;52.600;4.694;2022-12-16T01:48:00;101206.88;;;-1.38;87.31
62725;BME280;49026;52.600;4.694;2022-12-16T01:50:27;101207.72;;;-1.38;87.04
62725;BME280;49026;52.600;4.694;2022-12-16T01:52:56;101207.72;;;-1.39;86.63
62725;BME280;49026;52.600;4.694;2022-12-16T01:55:27;101212.88;;;-1.39;86.65
62725;BME280;49026;52.600;4.694;2022-12-16T01:58:12;101214.59;;;-1.38;86.23
62725;BME280;49026;52.600;4.694;2022-12-16T02:00:39;101218.88;;;-1.39;86.03
62725;BME280;49026;52.600;4.694;2022-12-16T02:03:05;101219.72;;;-1.41;86.39
62725;BME280;49026;52.600;4.694;2022-12-16T02:05:33;101223.97;;;-1.43;86.51
62725;BME280;49026;52.600;4.694;2022-12-16T02:08:15;101228.22;;;-1.45;85.91
62725;BME280;49026;52.600;4.694;2022-12-16T02:16:05;101218.72;;;-1.50;85.76
62725;BME280;49026;52.600;4.694;2022-12-16T02:19:01;101222.13;;;-1.51;85.93
62725;BME280;49026;52.600;4.694;2022-12-16T02:33:19;101233.72;;;-1.80;85.37
62725;BME280;49026;52.600;4.694;2022-12-16T02:38:58;101231.75;;;-1.94;85.65
62725;BME280;49026;52.600;4.694;2022-12-16T02:41:49;101245.41;;;-1.98;85.48
62725;BME280;49026;52.600;4.694;2022-12-16T02:44:16;101239.38;;;-2.00;85.64
62725;BME280;49026;52.600;4.694;2022-12-16T02:46:51;101242.78;;;-2.01;85.46
62725;BME280;49026;52.600;4.694;2022-12-16T02:51:44;101248.81;;;-1.99;85.44
62725;BME280;49026;52.600;4.694;2022-12-16T02:54:11;101252.25;;;-2.00;85.47
62725;BME280;49026;52.600;4.694;2022-12-16T02:59:42;101249.53;;;-2.08;85.75
62725;BME280;49026;52.600;4.694;2022-12-16T03:02:22;101258.94;;;-2.10;85.66
62725;BME280;49026;52.600;4.694;2022-12-16T03:05:08;101263.16;;;-2.13;85.50
62725;BME280;49026;52.600;4.694;2022-12-16T03:07:37;101269.03;;;-2.20;85.43
62725;BME280;49026;52.600;4.694;2022-12-16T03:10:06;101268.06;;;-2.27;85.70
62725;BME280;49026;52.600;4.694;2022-12-16T03:12:34;101271.41;;;-2.31;85.68
62725;BME280;49026;52.600;4.694;2022-12-16T03:15:02;101279.03;;;-2.36;85.66
62725;BME280;49026;52.600;4.694;2022-12-16T03:17:29;101284.97;;;-2.40;85.17
62725;BME280;49026;52.600;4.694;2022-12-16T03:20:21;101284.84;;;-2.45;85.78
62725;BME280;49026;52.600;4.694;2022-12-16T03:22:53;101289.00;;;-2.51;85.47
62725;BME280;49026;52.600;4.694;2022-12-16T03:25:21;101277.75;;;-2.56;85.52
62725;BME280;49026;52.600;4.694;2022-12-16T03:30:23;101291.50;;;-2.54;85.41
62725;BME280;49026;52.600;4.694;2022-12-16T03:33:10;101289.75;;;-2.57;85.47
62725;BME280;49026;52.600;4.694;2022-12-16T03:35:38;101286.34;;;-2.56;85.70
62725;BME280;49026;52.600;4.694;2022-12-16T03:38:09;101294.09;;;-2.54;85.26
62725;BME280;49026;52.600;4.694;2022-12-16T03:40:37;101292.41;;;-2.54;85.28
62725;BME280;49026;52.600;4.694;2022-12-16T03:43:03;101292.41;;;-2.54;85.21
62725;BME280;49026;52.600;4.694;2022-12-16T03:45:35;101290.69;;;-2.53;85.11
62725;BME280;49026;52.600;4.694;2022-12-16T03:48:02;101294.09;;;-2.54;84.49
62725;BME280;49026;52.600;4.694;2022-12-16T03:50:32;101299.16;;;-2.57;84.97
62725;BME280;49026;52.600;4.694;2022-12-16T03:52:58;101294.78;;;-2.63;85.04
62725;BME280;49026;52.600;4.694;2022-12-16T03:55:23;101302.41;;;-2.66;85.12
62725;BME280;49026;52.600;4.694;2022-12-16T03:57:49;101294.63;;;-2.69;84.94
62725;BME280;49026;52.600;4.694;2022-12-16T04:00:15;101292.06;;;-2.69;84.92
62725;BME280;49026;52.600;4.694;2022-12-16T04:02:41;101297.16;;;-2.71;84.93
62725;BME280;49026;52.600;4.694;2022-12-16T04:05:07;101310.88;;;-2.72;85.04
62725;BME280;49026;52.600;4.694;2022-12-16T04:07:35;101308.25;;;-2.75;84.63
62725;BME280;49026;52.600;4.694;2022-12-16T04:10:01;101308.22;;;-2.76;84.65
62725;BME280;49026;52.600;4.694;2022-12-16T04:12:26;101313.38;;;-2.75;84.88
62725;BME280;49026;52.600;4.694;2022-12-16T04:15:11;101316.00;;;-2.73;84.85
62725;BME280;49026;52.600;4.694;2022-12-16T04:17:55;101310.09;;;-2.68;85.24
62725;BME280;49026;52.600;4.694;2022-12-16T04:20:56;101308.56;;;-2.59;85.41
62725;BME280;49026;52.600;4.694;2022-12-16T04:23:51;101313.19;;;-2.43;85.86
62725;BME280;49026;52.600;4.694;2022-12-16T04:26:37;101310.91;;;-2.29;85.48
62725;BME280;49026;52.600;4.694;2022-12-16T04:29:22;101314.56;;;-2.18;85.98
62725;BME280;49026;52.600;4.694;2022-12-16T04:31:51;101313.00;;;-2.10;85.66
62725;BME280;49026;52.600;4.694;2022-12-16T04:34:17;101325.09;;;-2.07;85.79
62725;BME280;49026;52.600;4.694;2022-12-16T04:36:58;101324.31;;;-2.01;86.00
62725;BME280;49026;52.600;4.694;2022-12-16T04:39:43;101326.06;;;-1.99;85.80
62725;BME280;49026;52.600;4.694;2022-12-16T04:42:30;101334.72;;;-1.97;86.17
62725;BME280;49026;52.600;4.694;2022-12-16T04:45:14;101343.34;;;-1.95;85.99
62725;BME280;49026;52.600;4.694;2022-12-16T04:47:58;101351.16;;;-1.90;86.59
62725;BME280;49026;52.600;4.694;2022-12-16T04:50:43;101353.81;;;-1.86;86.54
62725;BME280;49026;52.600;4.694;2022-12-16T04:53:28;101351.41;;;-1.76;86.83
62725;BME280;49026;52.600;4.694;2022-12-16T04:56:12;101354.13;;;-1.70;86.88
62725;BME280;49026;52.600;4.694;2022-12-16T04:58:56;101357.72;;;-1.62;86.96
62725;BME280;49026;52.600;4.694;2022-12-16T05:01:40;101362.06;;;-1.58;86.99
62725;BME280;49026;52.600;4.694;2022-12-16T05:04:24;101362.06;;;-1.58;87.02
62725;BME280;49026;52.600;4.694;2022-12-16T05:07:08;101357.75;;;-1.59;87.47
62725;BME280;49026;52.600;4.694;2022-12-16T05:09:52;101354.38;;;-1.55;87.12
62725;BME280;49026;52.600;4.694;2022-12-16T05:12:36;101357.91;;;-1.50;87.50
62725;BME280;49026;52.600;4.694;2022-12-16T05:15:20;101356.25;;;-1.46;87.14
62725;BME280;49026;52.600;4.694;2022-12-16T05:18:09;101361.44;;;-1.44;87.45
62725;BME280;49026;52.600;4.694;2022-12-16T05:20:53;101363.19;;;-1.43;87.12
62725;BME280;49026;52.600;4.694;2022-12-16T05:23:51;101372.56;;;-1.48;86.72
62725;BME280;49026;52.600;4.694;2022-12-16T05:26:36;101374.25;;;-1.49;87.45
62725;BME280;49026;52.600;4.694;2022-12-16T05:29:20;101376.78;;;-1.51;87.25
62725;BME280;49026;52.600;4.694;2022-12-16T05:32:04;101381.84;;;-1.57;87.36
62725;BME280;49026;52.600;4.694;2022-12-16T05:34:49;101378.34;;;-1.59;87.45
62725;BME280;49026;52.600;4.694;2022-12-16T05:37:33;101386.06;;;-1.62;87.73
62725;BME280;49026;52.600;4.694;2022-12-16T05:40:17;101390.34;;;-1.61;87.53
62725;BME280;49026;52.600;4.694;2022-12-16T05:43:01;101392.16;;;-1.57;87.98
62725;BME280;49026;52.600;4.694;2022-12-16T05:45:45;101399.97;;;-1.52;87.90
62725;BME280;49026;52.600;4.694;2022-12-16T05:48:29;101397.38;;;-1.54;87.70
62725;BME280;49026;52.600;4.694;2022-12-16T05:51:13;101410.25;;;-1.55;87.65
62725;BME280;49026;52.600;4.694;2022-12-16T05:53:57;101406.78;;;-1.54;87.62
62725;BME280;49026;52.600;4.694;2022-12-16T05:56:41;101408.53;;;-1.53;87.87
62725;BME280;49026;52.600;4.694;2022-12-16T05:59:25;101419.72;;;-1.53;87.70
62725;BME280;49026;52.600;4.694;2022-12-16T06:02:09;101423.16;;;-1.54;87.77
62725;BME280;49026;52.600;4.694;2022-12-16T06:04:53;101419.66;;;-1.56;87.70
62725;BME280;49026;52.600;4.694;2022-12-16T06:07:37;101426.50;;;-1.58;87.95
62725;BME280;49026;52.600;4.694;2022-12-16T06:10:24;101426.59;;;-1.53;88.25
62725;BME280;49026;52.600;4.694;2022-12-16T06:13:08;101434.44;;;-1.45;88.25
62725;BME280;49026;52.600;4.694;2022-12-16T06:15:52;101432.00;;;-1.39;88.03
62725;BME280;49026;52.600;4.694;2022-12-16T06:18:36;101434.66;;;-1.35;87.50
62725;BME280;49026;52.600;4.694;2022-12-16T06:21:20;101419.28;;;-1.30;88.18
62725;BME280;49026;52.600;4.694;2022-12-16T06:24:04;101427.97;;;-1.25;87.84
62725;BME280;49026;52.600;4.694;2022-12-16T06:26:49;101426.28;;;-1.23;87.45
62725;BME280;49026;52.600;4.694;2022-12-16T06:29:32;101431.28;;;-1.31;87.55
62725;BME280;49026;52.600;4.694;2022-12-16T06:32:17;101433.75;;;-1.38;87.05
62725;BME280;49026;52.600;4.694;2022-12-16T06:35:01;101441.31;;;-1.46;87.31
62725;BME280;49026;52.600;4.694;2022-12-16T06:37:48;101442.81;;;-1.57;87.04
62725;BME280;49026;52.600;4.694;2022-12-16T06:40:33;101443.59;;;-1.63;87.15
62725;BME280;49026;52.600;4.694;2022-12-16T06:43:16;101445.13;;;-1.71;86.91
62725;BME280;49026;52.600;4.694;2022-12-16T06:46:00;101447.47;;;-1.83;87.12
62725;BME280;49026;52.600;4.694;2022-12-16T06:48:44;101443.09;;;-1.88;87.22
62725;BME280;49026;52.600;4.694;2022-12-16T06:51:28;101448.13;;;-1.94;87.19
62725;BME280;49026;52.600;4.694;2022-12-16T06:54:12;101449.66;;;-2.02;86.45
62725;BME280;49026;52.600;4.694;2022-12-16T06:56:56;101446.09;;;-2.09;86.92
62725;BME280;49026;52.600;4.694;2022-12-16T06:59:40;101449.31;;;-2.17;86.37
62725;BME280;49026;52.600;4.694;2022-12-16T07:02:24;101461.28;;;-2.19;86.55
62725;BME280;49026;52.600;4.694;2022-12-16T07:05:08;101469.75;;;-2.25;86.50
62725;BME280;49026;52.600;4.694;2022-12-16T07:07:53;101476.56;;;-2.29;86.43
62725;BME280;49026;52.600;4.694;2022-12-16T07:10:40;101476.47;;;-2.32;86.47
62725;BME280;49026;52.600;4.694;2022-12-16T07:13:24;101481.63;;;-2.32;86.24
62725;BME280;49026;52.600;4.694;2022-12-16T07:16:08;101488.47;;;-2.32;86.12
62725;BME280;49026;52.600;4.694;2022-12-16T07:18:52;101478.19;;;-2.31;86.39
62725;BME280;49026;52.600;4.694;2022-12-16T07:21:38;101491.19;;;-2.26;86.25
62725;BME280;49026;52.600;4.694;2022-12-16T07:24:22;101495.53;;;-2.24;86.52
62725;BME280;49026;52.600;4.694;2022-12-16T07:27:06;101495.63;;;-2.20;86.30
62725;BME280;49026;52.600;4.694;2022-12-16T07:29:50;101499.09;;;-2.18;86.24
62725;BME280;49026;52.600;4.694;2022-12-16T07:32:34;101499.91;;;-2.19;86.34
62725;BME280;49026;52.600;4.694;2022-12-16T07:35:19;101514.47;;;-2.21;85.91
62725;BME280;49026;52.600;4.694;2022-12-16T07:38:03;101519.63;;;-2.21;86.10
62725;BME280;49026;52.600;4.694;2022-12-16T07:40:47;101530.84;;;-2.18;86.01
62725;BME280;49026;52.600;4.694;2022-12-16T07:43:31;101533.50;;;-2.15;86.21
62725;BME280;49026;52.600;4.694;2022-12-16T07:46:15;101537.84;;;-2.14;86.38
62725;BME280;49026;52.600;4.694;2022-12-16T07:48:59;101546.41;;;-2.13;86.31
62725;BME280;49026;52.600;4.694;2022-12-16T07:51:43;101543.91;;;-2.10;86.62
62725;BME280;49026;52.600;4.694;2022-12-16T07:54:27;101538.84;;;-2.06;86.69
62725;BME280;49026;52.600;4.694;2022-12-16T07:57:11;101541.53;;;-2.01;86.56
62725;BME280;49026;52.600;4.694;2022-12-16T07:59:55;101553.75;;;-1.94;86.42
62725;BME280;49026;52.600;4.694;2022-12-16T08:02:39;101556.44;;;-1.88;86.67
62725;BME280;49026;52.600;4.694;2022-12-16T08:05:23;101555.72;;;-1.82;86.38
62725;BME280;49026;52.600;4.694;2022-12-16T08:08:07;101561.13;;;-1.70;86.53
62725;BME280;49026;52.600;4.694;2022-12-16T08:10:54;101560.53;;;-1.58;86.39
62725;BME280;49026;52.600;4.694;2022-12-16T08:13:39;101567.56;;;-1.49;86.83
62725;BME280;49026;52.600;4.694;2022-12-16T08:16:23;101582.31;;;-1.43;86.30
62725;BME280;49026;52.600;4.694;2022-12-16T08:19:07;101590.22;;;-1.34;86.23
62725;BME280;49026;52.600;4.694;2022-12-16T08:21:51;101592.09;;;-1.28;86.62
62725;BME280;49026;52.600;4.694;2022-12-16T08:24:35;101593.09;;;-1.19;86.37
62725;BME280;49026;52.600;4.694;2022-12-16T08:27:22;101593.38;;;-1.06;86.04
62725;BME280;49026;52.600;4.694;2022-12-16T08:30:06;101597.59;;;-0.64;85.82
62725;BME280;49026;52.600;4.694;2022-12-16T08:32:50;101596.50;;;-0.28;85.54
62725;BME280;49026;52.600;4.694;2022-12-16T08:35:34;101594.47;;;0.06;84.40
62725;BME280;49026;52.600;4.694;2022-12-16T08:38:20;101598.25;;;0.29;83.64
62725;BME280;49026;52.600;4.694;2022-12-16T08:41:04;101595.19;;;0.58;83.56
62725;BME280;49026;52.600;4.694;2022-12-16T08:43:48;101607.75;;;0.96;83.46
62725;BME280;49026;52.600;4.694;2022-12-16T08:46:32;101601.19;;;1.27;82.38
62725;BME280;49026;52.600;4.694;2022-12-16T08:49:17;101599.75;;;1.56;81.85
62725;BME280;49026;52.600;4.694;2022-12-16T08:52:01;101609.47;;;1.83;81.46
62725;BME280;49026;52.600;4.694;2022-12-16T08:54:45;101603.63;;;2.10;81.86
62725;BME280;49026;52.600;4.694;2022-12-16T08:57:29;101609.84;;;2.37;81.52
62725;BME280;49026;52.600;4.694;2022-12-16T09:00:14;101604.81;;;2.65;80.58
62725;BME280;49026;52.600;4.694;2022-12-16T09:02:58;101601.47;;;2.92;80.61
62725;BME280;49026;52.600;4.694;2022-12-16T09:05:43;101614.53;;;3.17;80.34
62725;BME280;49026;52.600;4.694;2022-12-16T09:08:27;101614.59;;;3.40;79.90
62725;BME280;49026;52.600;4.694;2022-12-16T09:11:12;101610.31;;;3.71;80.14
62725;BME280;49026;52.600;4.694;2022-12-16T09:13:56;101618.09;;;4.00;79.29
62725;BME280;49026;52.600;4.694;2022-12-16T09:16:42;101614.63;;;4.17;79.47
62725;BME280;49026;52.600;4.694;2022-12-16T09:19:27;101621.50;;;4.41;79.16
62725;BME280;49026;52.600;4.694;2022-12-16T09:22:10;101621.44;;;4.70;79.13
62725;BME280;49026;52.600;4.694;2022-12-16T09:24:54;101628.28;;;4.94;78.57
62725;BME280;49026;52.600;4.694;2022-12-16T09:27:58;101623.88;;;5.13;78.10
62725;BME280;49026;52.600;4.694;2022-12-16T09:30:42;101628.97;;;5.38;77.81
62725;BME280;49026;52.600;4.694;2022-12-16T09:33:26;101642.78;;;5.46;77.28
62725;BME280;49026;52.600;4.694;2022-12-16T09:36:27;101638.50;;;5.36;77.90
62725;BME280;49026;52.600;4.694;2022-12-16T09:39:14;101636.06;;;5.11;78.39
62725;BME280;49026;52.600;4.694;2022-12-16T09:45:05;101654.53;;;4.11;81.90
62725;BME280;49026;52.600;4.694;2022-12-16T09:48:05;101659.69;;;4.43;82.77
62725;BME280;49026;52.600;4.694;2022-12-16T09:50:56;101656.00;;;5.15;82.99
62725;BME280;49026;52.600;4.694;2022-12-16T09:53:46;101665.13;;;5.89;81.98
62725;BME280;49026;52.600;4.694;2022-12-16T09:56:34;101669.06;;;6.41;80.27
62725;BME280;49026;52.600;4.694;2022-12-16T09:59:24;101679.22;;;6.68;79.27
62725;BME280;49026;52.600;4.694;2022-12-16T10:02:12;101671.06;;;6.96;78.37
62725;BME280;49026;52.600;4.694;2022-12-16T10:04:59;101674.34;;;7.15;78.65
62725;BME280;49026;52.600;4.694;2022-12-16T10:11:16;101675.03;;;7.28;77.66
62725;BME280;49026;52.600;4.694;2022-12-16T10:14:15;101674.09;;;7.34;76.88
62725;BME280;49026;52.600;4.694;2022-12-16T10:17:14;101677.56;;;7.34;77.20
62725;BME280;49026;52.600;4.694;2022-12-16T10:20:14;101681.13;;;7.30;76.52
62725;BME280;49026;52.600;4.694;2022-12-16T10:28:59;101683.28;;;7.64;76.56
62725;BME280;49026;52.600;4.694;2022-12-16T10:31:46;101689.47;;;7.58;76.79
62725;BME280;49026;52.600;4.694;2022-12-16T10:34:33;101680.63;;;7.66;77.11
62725;BME280;49026;52.600;4.694;2022-12-16T10:37:32;101682.44;;;7.62;76.78
62725;BME280;49026;52.600;4.694;2022-12-16T10:40:22;101684.75;;;7.82;77.74
62725;BME280;49026;52.600;4.694;2022-12-16T10:43:34;101679.03;;;8.11;76.93
62725;BME280;49026;52.600;4.694;2022-12-16T10:46:21;101674.53;;;8.20;76.62
62725;BME280;49026;52.600;4.694;2022-12-16T10:49:24;101679.09;;;8.07;76.40
62725;BME280;49026;52.600;4.694;2022-12-16T10:52:11;101680.63;;;8.22;77.37
62725;BME280;49026;52.600;4.694;2022-12-16T10:55:23;101678.53;;;8.42;76.72
62725;BME280;49026;52.600;4.694;2022-12-16T10:58:24;101681.91;;;8.50;76.33
62725;BME280;49026;52.600;4.694;2022-12-16T11:01:25;101683.56;;;8.56;76.61
62725;BME280;49026;52.600;4.694;2022-12-16T11:04:33;101685.19;;;8.62;75.86
62725;BME280;49026;52.600;4.694;2022-12-16T11:07:37;101693.78;;;8.68;76.57
62725;BME280;49026;52.600;4.694;2022-12-16T11:13:19;101694.28;;;9.33;77.14
62725;BME280;49026;52.600;4.694;2022-12-16T11:16:07;101699.25;;;9.45;75.48
62725;BME280;49026;52.600;4.694;2022-12-16T11:18:52;101689.78;;;9.39;75.77
62725;BME280;49026;52.600;4.694;2022-12-16T11:22:25;101700.59;;;9.64;76.84
62725;BME280;49026;52.600;4.694;2022-12-16T11:28:16;101707.75;;;10.31;75.44
62725;BME280;49026;52.600;4.694;2022-12-16T11:31:05;101706.47;;;10.12;75.04
62725;BME280;49026;52.600;4.694;2022-12-16T11:33:55;101715.91;;;9.83;75.95
62725;BME280;49026;52.600;4.694;2022-12-16T11:36:41;101713.88;;;9.15;77.29
62725;BME280;49026;52.600;4.694;2022-12-16T11:39:28;101718.03;;;8.28;79.34
62725;BME280;49026;52.600;4.694;2022-12-16T11:42:26;101721.16;;;7.35;80.56
62725;BME280;49026;52.600;4.694;2022-12-16T11:45:16;101726.28;;;6.62;82.36
62725;BME280;49026;52.600;4.694;2022-12-16T11:48:07;101725.94;;;5.94;83.11
62725;BME280;49026;52.600;4.694;2022-12-16T11:50:58;101722.81;;;5.26;84.54
62725;BME280;49026;52.600;4.694;2022-12-16T11:54:07;101729.94;;;4.73;85.44
62725;BME280;49026;52.600;4.694;2022-12-16T11:56:55;101729.00;;;5.06;87.07
62725;BME280;49026;52.600;4.694;2022-12-16T11:59:56;101722.41;;;6.09;86.06
62725;BME280;49026;52.600;4.694;2022-12-16T12:02:57;101724.84;;;7.17;83.72
62725;BME280;49026;52.600;4.694;2022-12-16T12:21:26;101735.91;;;9.50;75.25
62725;BME280;49026;52.600;4.694;2022-12-16T12:24:22;101741.91;;;9.55;74.58
62725;BME280;49026;52.600;4.694;2022-12-16T12:30:26;101738.81;;;9.76;74.23
62725;BME280;49026;52.600;4.694;2022-12-16T12:42:11;101740.09;;;9.97;73.29
62725;BME280;49026;52.600;4.694;2022-12-16T12:48:12;101743.31;;;9.71;71.96
62725;BME280;49026;52.600;4.694;2022-12-16T12:54:03;101751.56;;;9.93;72.92
62725;BME280;49026;52.600;4.694;2022-12-16T12:56:51;101751.88;;;10.17;72.37
62725;BME280;49026;52.600;4.694;2022-12-16T12:59:59;101753.47;;;10.24;72.01
62725;BME280;49026;52.600;4.694;2022-12-16T13:03:03;101753.25;;;10.33;71.60
62725;BME280;49026;52.600;4.694;2022-12-16T13:05:50;101754.25;;;10.28;71.25
62725;BME280;49026;52.600;4.694;2022-12-16T13:11:38;101763.09;;;9.86;71.38
62725;BME280;49026;52.600;4.694;2022-12-16T13:18:18;101756.63;;;9.60;71.98
62725;BME280;49026;52.600;4.694;2022-12-16T13:21:03;101764.59;;;9.57;71.61
62725;BME280;49026;52.600;4.694;2022-12-16T13:23:47;101755.72;;;9.63;71.38
62725;BME280;49026;52.600;4.694;2022-12-16T13:26:35;101754.00;;;9.62;71.29
62725;BME280;49026;52.600;4.694;2022-12-16T13:29:28;101755.88;;;9.55;71.55
62725;BME280;49026;52.600;4.694;2022-12-16T13:32:23;101753.25;;;9.55;72.09
62725;BME280;49026;52.600;4.694;2022-12-16T13:37:53;101759.31;;;9.59;71.58
62725;BME280;49026;52.600;4.694;2022-12-16T13:40:57;101755.16;;;9.47;71.42
62725;BME280;49026;52.600;4.694;2022-12-16T13:58:39;101780.88;;;9.73;71.53
62725;BME280;49026;52.600;4.694;2022-12-16T14:01:44;101782.66;;;9.71;71.32
62725;BME280;49026;52.600;4.694;2022-12-16T14:04:58;101787.38;;;9.54;71.24
62725;BME280;49026;52.600;4.694;2022-12-16T14:07:43;101784.19;;;9.41;71.60
62725;BME280;49026;52.600;4.694;2022-12-16T14:10:58;101792.41;;;9.22;72.19
62725;BME280;49026;52.600;4.694;2022-12-16T14:14:18;101794.16;;;9.22;72.64
62725;BME280;49026;52.600;4.694;2022-12-16T14:17:07;101800.25;;;9.24;72.02
62725;BME280;49026;52.600;4.694;2022-12-16T14:20:22;101798.84;;;9.06;71.73
62725;BME280;49026;52.600;4.694;2022-12-16T14:23:26;101797.59;;;8.77;72.50
62725;BME280;49026;52.600;4.694;2022-12-16T14:26:14;101799.56;;;8.64;73.03
62725;BME280;49026;52.600;4.694;2022-12-16T14:29:02;101808.28;;;8.65;73.22
62725;BME280;49026;52.600;4.694;2022-12-16T14:31:47;101805.00;;;8.52;72.85
62725;BME280;49026;52.600;4.694;2022-12-16T14:34:33;101807.31;;;8.13;72.83
62725;BME280;49026;52.600;4.694;2022-12-16T14:37:35;101809.34;;;7.18;73.43
62725;BME280;49026;52.600;4.694;2022-12-16T14:40:27;101815.41;;;6.19;75.94
62725;BME280;49026;52.600;4.694;2022-12-16T14:43:13;101814.84;;;5.48;77.40
62725;BME280;49026;52.600;4.694;2022-12-16T14:45:58;101827.13;;;4.86;77.81
62725;BME280;49026;52.600;4.694;2022-12-16T14:48:46;101831.44;;;4.28;78.57
62725;BME280;49026;52.600;4.694;2022-12-16T14:51:32;101834.75;;;3.82;79.61
62725;BME280;49026;52.600;4.694;2022-12-16T14:57:17;101837.84;;;3.10;80.66
62725;BME280;49026;52.600;4.694;2022-12-16T15:00:10;101839.41;;;2.85;80.64
62725;BME280;49026;52.600;4.694;2022-12-16T15:05:50;101854.59;;;2.39;80.56
62725;BME280;49026;52.600;4.694;2022-12-16T15:08:59;101862.09;;;2.14;81.02
62725;BME280;49026;52.600;4.694;2022-12-16T15:11:46;101869.66;;;1.96;81.08
62725;BME280;49026;52.600;4.694;2022-12-16T15:14:34;101865.97;;;1.78;80.68
62725;BME280;49026;52.600;4.694;2022-12-16T15:20:24;101877.66;;;1.45;81.22
62725;BME280;49026;52.600;4.694;2022-12-16T15:26:08;101888.38;;;1.12;81.06
62725;BME280;49026;52.600;4.694;2022-12-16T15:28:52;101886.34;;;0.92;80.95
62725;BME280;49026;52.600;4.694;2022-12-16T15:31:38;101897.34;;;0.81;80.84
62725;BME280;49026;52.600;4.694;2022-12-16T15:37:21;101904.00;;;0.66;80.87
62725;BME280;49026;52.600;4.694;2022-12-16T15:40:27;101902.94;;;0.57;81.13
62725;BME280;49026;52.600;4.694;2022-12-16T15:43:29;101900.94;;;0.42;80.55
62725;BME280;49026;52.600;4.694;2022-12-16T15:49:04;101899.34;;;0.03;80.68
62725;BME280;49026;52.600;4.694;2022-12-16T15:51:49;101902.50;;;-0.11;81.11
62725;BME280;49026;52.600;4.694;2022-12-16T15:54:48;101900.59;;;-0.21;81.03
62725;BME280;49026;52.600;4.694;2022-12-16T15:57:34;101909.00;;;-0.30;81.11
62725;BME280;49026;52.600;4.694;2022-12-16T16:00:27;101914.00;;;-0.38;81.32
62725;BME280;49026;52.600;4.694;2022-12-16T16:03:27;101913.81;;;-0.47;81.09
62725;BME280;49026;52.600;4.694;2022-12-16T16:06:25;101925.63;;;-0.57;81.09
62725;BME280;49026;52.600;4.694;2022-12-16T16:09:14;101921.97;;;-0.66;81.14
62725;BME280;49026;52.600;4.694;2022-12-16T16:11:58;101925.19;;;-0.75;81.21
62725;BME280;49026;52.600;4.694;2022-12-16T16:14:42;101921.44;;;-0.88;81.01
62725;BME280;49026;52.600;4.694;2022-12-16T16:17:27;101934.97;;;-0.98;81.39